createdAt,value
2018-10-11T00:00:40.000Z,20.8
2018-10-11T00:10:39.000Z,20.78
2018-10-11T00:20:39.000Z,20.73
2018-10-11T00:30:39.000Z,20.7
2018-10-11T00:40:40.000Z,20.67
2018-10-11T00:50:40.000Z,20.62
2018-10-11T01:00:40.000Z,20.59
2018-10-11T01:10:41.000Z,20.55
2018-10-11T01:20:40.000Z,20.51
2018-10-11T01:30:40.000Z,20.48
2018-10-11T01:40:40.000Z,20.45
2018-10-11T01:50:40.000Z,20.42
2018-10-11T02:00:40.000Z,20.37
2018-10-11T02:10:40.000Z,20.32
2018-10-11T02:20:40.000Z,20.29
2018-10-11T02:30:40.000Z,20.26
2018-10-11T02:40:40.000Z,20.23
2018-10-11T02:50:40.000Z,20.18
2018-10-11T03:00:40.000Z,20.15
2018-10-11T03:10:40.000Z,20.14
2018-10-11T03:20:40.000Z,20.1
2018-10-11T03:30:40.000Z,20.09
2018-10-11T03:40:40.000Z,20.07
2018-10-11T03:50:40.000Z,20.02
2018-10-11T04:00:40.000Z,20.01
2018-10-11T04:10:40.000Z,19.96
2018-10-11T04:20:40.000Z,19.94
2018-10-11T04:40:40.000Z,19.89
2018-10-11T04:50:40.000Z,19.84
2018-10-11T05:00:40.000Z,19.84
2018-10-11T05:10:40.000Z,19.82
2018-10-11T05:20:40.000Z,19.8
2018-10-11T05:30:40.000Z,19.72
2018-10-11T05:40:40.000Z,19.75
2018-10-11T05:50:40.000Z,19.73
2018-10-11T06:00:40.000Z,19.7
2018-10-11T06:10:40.000Z,19.67
2018-10-11T06:20:40.000Z,19.63
2018-10-11T06:30:40.000Z,19.62
2018-10-11T06:40:40.000Z,19.6
2018-10-11T06:50:40.000Z,19.61
2018-10-11T07:00:40.000Z,19.6
2018-10-11T07:10:40.000Z,19.63
2018-10-11T07:20:40.000Z,19.62
2018-10-11T07:30:40.000Z,19.54
2018-10-11T07:40:40.000Z,19.6
2018-10-11T07:50:40.000Z,19.56
2018-10-11T08:00:40.000Z,19.81
2018-10-11T08:10:40.000Z,19.87
2018-10-11T08:20:40.000Z,19.92
2018-10-11T08:30:40.000Z,19.98
2018-10-11T08:40:41.000Z,20.04
2018-10-11T08:50:43.000Z,20.11
2018-10-11T09:00:41.000Z,20.19
2018-10-11T09:10:41.000Z,20.36
2018-10-11T09:20:41.000Z,20.51
2018-10-11T09:30:41.000Z,20.65
2018-10-11T09:50:41.000Z,21.08
2018-10-11T10:00:41.000Z,21.35
2018-10-11T10:10:41.000Z,21.53
2018-10-11T10:20:41.000Z,21.62
2018-10-11T10:30:41.000Z,21.82
2018-10-11T10:40:41.000Z,21.93
2018-10-11T10:50:41.000Z,22.06
2018-10-11T11:00:41.000Z,22.16
2018-10-11T11:10:41.000Z,22.19
2018-10-11T11:20:41.000Z,22.18
2018-10-11T11:30:41.000Z,22.3
2018-10-11T11:40:41.000Z,22.25
2018-10-11T11:50:41.000Z,22.23
2018-10-11T12:00:41.000Z,22.28
2018-10-11T12:10:41.000Z,22.25
2018-10-11T12:20:41.000Z,22.24
2018-10-11T12:30:41.000Z,22.31
2018-10-11T12:40:42.000Z,22.28
2018-10-11T12:50:41.000Z,22.27
2018-10-11T13:00:41.000Z,22.23
2018-10-11T13:10:41.000Z,22.21
2018-10-11T13:20:41.000Z,22.24
2018-10-11T13:30:41.000Z,22.25
2018-10-11T13:40:41.000Z,22.18
2018-10-11T13:50:41.000Z,22.19
2018-10-11T14:00:41.000Z,22.21
2018-10-11T14:10:41.000Z,22.21
2018-10-11T14:20:41.000Z,22.19
2018-10-11T14:30:41.000Z,22.2
2018-10-11T14:40:42.000Z,22.21
2018-10-11T14:50:41.000Z,22.22
2018-10-11T15:00:41.000Z,22.17
2018-10-11T15:10:41.000Z,22.15
2018-10-11T15:20:41.000Z,22.14
2018-10-11T15:30:41.000Z,22.13
2018-10-11T15:40:41.000Z,22.11
2018-10-11T15:50:41.000Z,22.1
2018-10-11T16:00:41.000Z,22.07
2018-10-11T16:10:41.000Z,22.03
2018-10-11T16:20:41.000Z,22.03
2018-10-11T16:30:41.000Z,22.11
2018-10-11T16:40:41.000Z,22.12
2018-10-11T16:50:41.000Z,22.15
2018-10-11T17:00:41.000Z,22.05
2018-10-11T17:10:41.000Z,22.12
2018-10-11T17:20:41.000Z,22.11
2018-10-11T17:30:42.000Z,22.12
2018-10-11T17:40:42.000Z,22.12
2018-10-11T17:50:42.000Z,22.07
2018-10-11T18:00:42.000Z,22.14
2018-10-11T18:10:42.000Z,22.12
2018-10-11T18:20:42.000Z,22.11
2018-10-11T18:30:42.000Z,22.12
2018-10-11T18:40:42.000Z,22.13
2018-10-11T18:50:42.000Z,22.14
2018-10-11T19:00:42.000Z,22.07
2018-10-11T19:10:42.000Z,22.14
2018-10-11T19:20:42.000Z,22.13
2018-10-11T19:30:43.000Z,22.09
2018-10-11T19:40:42.000Z,22.03
2018-10-11T19:50:42.000Z,22.11
2018-10-11T20:00:42.000Z,22.1
2018-10-11T20:10:42.000Z,22.05
2018-10-11T20:20:42.000Z,22.03
2018-10-11T20:30:42.000Z,22.02
2018-10-11T20:40:42.000Z,22
2018-10-11T20:50:42.000Z,21.97
2018-10-11T21:00:42.000Z,21.94
2018-10-11T21:10:42.000Z,21.88
2018-10-11T21:20:42.000Z,21.86
2018-10-11T21:30:42.000Z,21.84
2018-10-11T21:40:42.000Z,21.81
2018-10-11T21:50:42.000Z,21.79
2018-10-11T22:00:42.000Z,21.77
2018-10-11T22:10:42.000Z,21.74
2018-10-11T22:20:42.000Z,21.71
2018-10-11T22:30:42.000Z,21.67
2018-10-11T22:40:42.000Z,21.65
2018-10-11T22:50:42.000Z,21.61
2018-10-11T23:00:42.000Z,21.59
2018-10-11T23:10:42.000Z,21.56
2018-10-11T23:20:42.000Z,21.54
2018-10-11T23:30:42.000Z,21.52
2018-10-11T23:40:42.000Z,21.49
2018-10-11T23:50:42.000Z,21.46
